Betanzos, Spain
Current Conditions -  °F | °C
As of 5:30 PM on Wednesday 22 Oct 2014 (Local Time) from LECO Reporting Station
Clear Clear  
Wind Chill: 70°   Ceiling: Unl
Heat Index: 70°   Visibility: 6mi
Dew Point: 61°   Wind: 2mph
Humidity: 73%   Direction: NA
Pressure: 30.33"   Gusts: NA
Location:  43.28°N, 8.21°W
Report Text: LECO 221530Z VRB02KT CAVOK 21/16 Q1027 NOSIG
Loading
Personal Weather Stations






























Interactive Weather Map
Tropical Storm Tracking
New forecast layout! Learn more

10-Day Weather Forecast

Advertisements
Track Severe Weather on mobile